createdAt,value
2023-04-04T00:00:32.708Z,8.29
2023-04-04T00:01:34.335Z,8.27
2023-04-04T00:02:36.079Z,8.28
2023-04-04T00:03:37.810Z,8.27
2023-04-04T00:04:39.525Z,8.24
2023-04-04T00:05:41.105Z,8.26
2023-04-04T00:06:45.655Z,8.26
2023-04-04T00:07:47.731Z,8.25
2023-04-04T00:08:49.267Z,8.29
2023-04-04T00:09:50.968Z,8.28
2023-04-04T00:11:00.611Z,8.31
2023-04-04T00:12:02.790Z,8.32
2023-04-04T00:13:05.715Z,8.33
2023-04-04T00:14:07.366Z,8.32
2023-04-04T00:15:09.484Z,8.30
2023-04-04T00:16:11.650Z,8.30
2023-04-04T00:17:13.212Z,8.30
2023-04-04T00:18:14.775Z,8.29
2023-04-04T00:19:18.316Z,8.29
2023-04-04T00:20:20.067Z,8.22
2023-04-04T00:21:21.633Z,8.21
2023-04-04T00:22:23.189Z,8.22
2023-04-04T00:23:25.284Z,8.26
2023-04-04T00:24:26.838Z,8.25
2023-04-04T00:25:28.374Z,8.24
2023-04-04T00:26:30.093Z,8.23
2023-04-04T00:27:32.197Z,8.24
2023-04-04T00:28:33.802Z,8.23
2023-04-04T00:29:35.382Z,8.24
2023-04-04T00:30:37.027Z,8.24
2023-04-04T00:31:38.778Z,8.25
2023-04-04T00:32:40.755Z,8.17
2023-04-04T00:33:42.532Z,8.11
2023-04-04T00:34:44.128Z,8.10
2023-04-04T00:35:48.540Z,8.08
2023-04-04T00:36:50.089Z,8.05
2023-04-04T00:37:51.725Z,8.00
2023-04-04T00:38:53.241Z,7.98
2023-04-04T00:39:54.774Z,7.98
2023-04-04T00:40:57.192Z,7.99
2023-04-04T00:41:58.917Z,8.03
2023-04-04T00:43:00.595Z,8.04
2023-04-04T00:44:03.127Z,8.09
2023-04-04T00:45:07.523Z,8.12
2023-04-04T00:46:11.238Z,8.21
2023-04-04T00:47:25.189Z,8.28
2023-04-04T00:48:28.449Z,8.30
2023-04-04T00:49:30.006Z,8.30
2023-04-04T00:50:32.460Z,8.43
2023-04-04T00:51:34.023Z,8.46
2023-04-04T00:52:35.875Z,8.57
2023-04-04T00:53:38.334Z,8.62
2023-04-04T00:54:39.857Z,8.69
2023-04-04T00:55:43.418Z,8.73
2023-04-04T00:56:44.996Z,8.79
2023-04-04T00:57:47.046Z,8.84
2023-04-04T00:58:48.753Z,8.86
2023-04-04T00:59:50.761Z,8.79
2023-04-04T01:00:52.687Z,8.65
2023-04-04T01:01:54.679Z,8.51
2023-04-04T01:02:56.928Z,8.53
2023-04-04T01:03:59.056Z,8.63
2023-04-04T01:05:00.708Z,8.65
2023-04-04T01:06:02.811Z,8.66
2023-04-04T01:07:04.486Z,8.59
2023-04-04T01:08:07.038Z,8.55
2023-04-04T01:09:08.815Z,8.60
2023-04-04T01:10:11.519Z,8.67
2023-04-04T01:11:13.299Z,8.73
2023-04-04T01:12:14.967Z,8.76
2023-04-04T01:13:16.534Z,8.72
2023-04-04T01:14:18.142Z,8.65
2023-04-04T01:15:19.775Z,8.56
2023-04-04T01:16:22.320Z,8.53
2023-04-04T01:17:24.513Z,8.51
2023-04-04T01:18:27.645Z,8.50
2023-04-04T01:19:34.928Z,8.55
2023-04-04T01:20:44.507Z,8.65
2023-04-04T01:21:47.456Z,8.74
2023-04-04T01:22:50.645Z,8.80
2023-04-04T01:24:00.190Z,8.88
2023-04-04T01:25:02.950Z,8.98
2023-04-04T01:26:05.719Z,8.96
2023-04-04T01:27:07.227Z,9.01
2023-04-04T01:28:09.126Z,9.01
2023-04-04T01:29:11.076Z,8.98
2023-04-04T01:30:14.675Z,8.97
2023-04-04T01:31:22.030Z,8.97
2023-04-04T01:32:53.150Z,8.97
2023-04-04T01:34:02.190Z,9.03
2023-04-04T01:35:27.796Z,9.05
2023-04-04T01:36:39.955Z,8.99
2023-04-04T01:37:56.203Z,8.89
2023-04-04T01:39:32.976Z,8.67
2023-04-04T01:40:37.485Z,8.42
2023-04-04T01:41:39.690Z,8.30
2023-04-04T01:42:43.882Z,8.29
2023-04-04T01:43:46.723Z,8.35
2023-04-04T01:44:48.431Z,8.41
2023-04-04T01:45:50.859Z,8.52
2023-04-04T01:46:56.074Z,8.64
2023-04-04T01:47:58.304Z,8.75
2023-04-04T01:49:00.400Z,8.84
2023-04-04T01:50:02.084Z,8.95
2023-04-04T01:51:03.967Z,9.02
2023-04-04T01:52:07.272Z,9.08
2023-04-04T01:53:08.891Z,9.14
2023-04-04T01:54:10.809Z,9.11
2023-04-04T01:55:12.492Z,9.04
2023-04-04T01:56:14.543Z,8.89
2023-04-04T01:57:16.042Z,8.77
2023-04-04T01:58:17.685Z,8.71
2023-04-04T01:59:19.356Z,8.57
2023-04-04T02:00:21.025Z,8.53
2023-04-04T02:01:22.797Z,8.53
2023-04-04T02:02:24.561Z,8.53
2023-04-04T02:03:27.041Z,8.47
2023-04-04T02:04:30.390Z,8.39
2023-04-04T02:05:32.178Z,8.34
2023-04-04T02:06:33.966Z,8.36
2023-04-04T02:07:35.550Z,8.42
2023-04-04T02:08:38.382Z,8.45
2023-04-04T02:09:40.094Z,8.47
2023-04-04T02:10:41.960Z,8.44
2023-04-04T02:11:43.743Z,8.40
2023-04-04T02:12:45.923Z,8.31
2023-04-04T02:13:47.481Z,8.30
2023-04-04T02:14:49.603Z,8.25
2023-04-04T02:15:51.766Z,8.24
2023-04-04T02:16:53.470Z,8.25
2023-04-04T02:17:55.010Z,8.27
2023-04-04T02:18:56.877Z,8.30
2023-04-04T02:19:58.390Z,8.31
2023-04-04T02:20:59.924Z,8.31
2023-04-04T02:22:01.687Z,8.31
2023-04-04T02:23:03.246Z,8.34
2023-04-04T02:24:05.347Z,8.33
2023-04-04T02:25:07.137Z,8.35
2023-04-04T02:26:08.667Z,8.38
2023-04-04T02:27:10.334Z,8.42
2023-04-04T02:28:11.963Z,8.43
2023-04-04T02:29:13.498Z,8.47
2023-04-04T02:30:15.560Z,8.55
2023-04-04T02:31:17.387Z,8.64
2023-04-04T02:32:19.062Z,8.73
2023-04-04T02:33:20.698Z,8.83
2023-04-04T02:34:22.193Z,8.91
2023-04-04T02:35:23.752Z,8.98
2023-04-04T02:36:25.311Z,9.07
2023-04-04T02:37:27.108Z,9.13
2023-04-04T02:38:28.723Z,9.20
2023-04-04T02:39:30.517Z,9.26
2023-04-04T02:40:32.031Z,9.33
2023-04-04T02:41:33.608Z,9.39
2023-04-04T02:42:35.433Z,9.48
2023-04-04T02:43:37.021Z,9.57
2023-04-04T02:44:38.632Z,9.62
2023-04-04T02:45:40.192Z,9.65
2023-04-04T02:46:42.456Z,9.70
2023-04-04T02:47:50.392Z,9.74
2023-04-04T02:48:52.197Z,9.78
2023-04-04T02:49:53.831Z,9.76
2023-04-04T02:50:55.344Z,9.68
2023-04-04T02:51:57.780Z,9.70
2023-04-04T02:53:01.440Z,9.75
2023-04-04T02:54:03.325Z,9.81
2023-04-04T02:55:05.885Z,9.83
2023-04-04T02:56:07.715Z,9.85
2023-04-04T02:57:09.251Z,9.88
2023-04-04T02:58:10.827Z,9.89
2023-04-04T02:59:12.400Z,9.92
2023-04-04T03:00:14.387Z,9.95
2023-04-04T03:01:16.216Z,9.99
2023-04-04T03:02:17.917Z,10.00
2023-04-04T03:03:19.778Z,10.02
2023-04-04T03:04:21.573Z,10.07
2023-04-04T03:05:27.292Z,10.09
2023-04-04T03:06:32.985Z,10.12
2023-04-04T03:07:34.547Z,10.15
2023-04-04T03:08:36.444Z,10.16
2023-04-04T03:09:37.969Z,10.21
2023-04-04T03:10:39.636Z,10.28
2023-04-04T03:11:41.636Z,10.30
2023-04-04T03:12:43.149Z,10.26
2023-04-04T03:13:44.725Z,10.22
2023-04-04T03:14:46.272Z,10.21
2023-04-04T03:15:47.886Z,10.20
2023-04-04T03:16:50.027Z,10.16
2023-04-04T03:17:52.398Z,10.16
2023-04-04T03:18:55.704Z,10.16
2023-04-04T03:19:57.251Z,10.15
2023-04-04T03:20:58.883Z,10.15
2023-04-04T03:22:00.424Z,10.10
2023-04-04T03:23:02.128Z,10.05
2023-04-04T03:24:03.841Z,10.05
2023-04-04T03:25:05.975Z,10.07
2023-04-04T03:26:07.514Z,10.09
2023-04-04T03:27:09.029Z,10.14
2023-04-04T03:28:10.832Z,10.17
2023-04-04T03:29:12.445Z,10.19
2023-04-04T03:30:14.120Z,10.23
2023-04-04T03:31:15.718Z,10.23
2023-04-04T03:32:18.288Z,10.22
2023-04-04T03:33:19.833Z,10.25
2023-04-04T03:34:21.584Z,10.28
2023-04-04T03:35:23.155Z,10.27
2023-04-04T03:36:24.709Z,10.21
2023-04-04T03:37:26.232Z,10.16
2023-04-04T03:38:27.844Z,10.07
2023-04-04T03:39:32.329Z,9.94
2023-04-04T03:40:33.948Z,9.95
2023-04-04T03:41:35.899Z,9.90
2023-04-04T03:42:37.958Z,9.81
2023-04-04T03:43:40.072Z,9.72
2023-04-04T03:44:42.683Z,9.77
2023-04-04T03:45:44.676Z,9.80
2023-04-04T03:46:46.254Z,9.83
2023-04-04T03:47:48.255Z,9.82
2023-04-04T03:48:49.869Z,9.80
2023-04-04T03:49:52.432Z,9.76
2023-04-04T03:50:54.019Z,9.75
2023-04-04T03:51:55.576Z,9.74
2023-04-04T03:52:58.501Z,9.73
2023-04-04T03:54:00.147Z,9.75
2023-04-04T03:55:01.825Z,9.81
2023-04-04T03:56:03.575Z,9.86
2023-04-04T03:57:05.856Z,9.91
2023-04-04T03:58:07.657Z,9.95
2023-04-04T03:59:09.686Z,9.96
2023-04-04T04:00:12.244Z,9.92
2023-04-04T04:01:13.766Z,9.87
2023-04-04T04:02:15.454Z,9.83
2023-04-04T04:03:17.401Z,9.76
2023-04-04T04:04:19.164Z,9.62
2023-04-04T04:05:20.790Z,9.55
2023-04-04T04:06:22.608Z,9.56
2023-04-04T04:07:24.112Z,9.53
2023-04-04T04:08:25.667Z,9.46
2023-04-04T04:09:27.184Z,9.36
2023-04-04T04:10:28.732Z,9.27
2023-04-04T04:11:30.771Z,9.22
2023-04-04T04:12:32.277Z,9.20
2023-04-04T04:13:36.144Z,9.17
2023-04-04T04:14:37.794Z,9.20
2023-04-04T04:15:39.378Z,9.21
2023-04-04T04:16:41.620Z,9.23
2023-04-04T04:17:43.239Z,9.25
2023-04-04T04:18:44.785Z,9.26
2023-04-04T04:19:46.723Z,9.28
2023-04-04T04:20:48.246Z,9.31
2023-04-04T04:21:49.843Z,9.31
2023-04-04T04:22:53.812Z,9.30
2023-04-04T04:23:55.923Z,9.32
2023-04-04T04:24:57.413Z,9.36
2023-04-04T04:25:59.018Z,9.45
2023-04-04T04:27:00.519Z,9.56
2023-04-04T04:28:02.070Z,9.56
2023-04-04T04:29:03.796Z,9.53
2023-04-04T04:30:06.183Z,9.50
2023-04-04T04:31:09.070Z,9.48
2023-04-04T04:32:10.733Z,9.44
2023-04-04T04:33:12.985Z,9.37
2023-04-04T04:34:14.571Z,9.30
2023-04-04T04:35:16.664Z,9.19
2023-04-04T04:36:18.439Z,9.05
2023-04-04T04:37:19.980Z,8.96
2023-04-04T04:38:21.477Z,8.94
2023-04-04T04:39:23.023Z,8.98
2023-04-04T04:40:24.552Z,9.01
2023-04-04T04:41:26.363Z,9.03
2023-04-04T04:42:29.359Z,9.07
2023-04-04T04:43:30.979Z,9.13
2023-04-04T04:44:32.568Z,9.22
2023-04-04T04:45:34.113Z,9.32
2023-04-04T04:46:35.668Z,9.40
2023-04-04T04:47:37.548Z,9.49
2023-04-04T04:48:39.215Z,9.55
2023-04-04T04:49:42.311Z,9.63
2023-04-04T04:50:47.234Z,9.71
2023-04-04T04:51:49.220Z,9.78
2023-04-04T04:52:53.962Z,9.81
2023-04-04T04:53:55.572Z,9.80
2023-04-04T04:54:57.389Z,9.83
2023-04-04T04:55:58.886Z,9.83
2023-04-04T04:57:01.489Z,9.87
2023-04-04T04:58:03.406Z,9.89
2023-04-04T04:59:09.867Z,9.93
2023-04-04T05:00:12.431Z,9.96
2023-04-04T05:01:14.048Z,9.97
2023-04-04T05:02:16.701Z,9.98
2023-04-04T05:03:18.328Z,10.01
2023-04-04T05:04:19.880Z,10.05
2023-04-04T05:05:21.408Z,10.09
2023-04-04T05:06:23.049Z,10.13
2023-04-04T05:07:24.712Z,10.17
2023-04-04T05:08:26.470Z,10.21
2023-04-04T05:09:28.016Z,10.24
2023-04-04T05:10:30.714Z,10.23
2023-04-04T05:11:32.372Z,10.16
2023-04-04T05:12:33.942Z,10.11
2023-04-04T05:13:35.941Z,10.09
2023-04-04T05:14:37.632Z,10.12
2023-04-04T05:15:39.234Z,10.18
2023-04-04T05:16:43.373Z,10.23
2023-04-04T05:17:45.095Z,10.27
2023-04-04T05:18:47.177Z,10.34
2023-04-04T05:19:48.834Z,10.39
2023-04-04T05:20:59.457Z,10.43
2023-04-04T05:22:00.989Z,10.46
2023-04-04T05:23:02.520Z,10.56
2023-04-04T05:24:04.230Z,10.57
2023-04-04T05:25:05.828Z,10.62
2023-04-04T05:26:07.491Z,10.63
2023-04-04T05:27:10.531Z,10.64
2023-04-04T05:28:12.372Z,10.63
2023-04-04T05:29:13.922Z,10.60
2023-04-04T05:30:16.362Z,10.51
2023-04-04T05:31:18.761Z,10.46
2023-04-04T05:32:20.378Z,10.45
2023-04-04T05:33:23.352Z,10.47
2023-04-04T05:34:24.939Z,10.51
2023-04-04T05:35:26.581Z,10.51
2023-04-04T05:36:28.164Z,10.51
2023-04-04T05:37:29.713Z,10.54
2023-04-04T05:38:31.501Z,10.56
2023-04-04T05:39:33.017Z,10.55
2023-04-04T05:40:34.531Z,10.60
2023-04-04T05:41:36.518Z,10.65
2023-04-04T05:42:38.199Z,10.69
2023-04-04T05:43:39.781Z,10.75
2023-04-04T05:44:41.324Z,10.79
2023-04-04T05:45:42.902Z,10.81
2023-04-04T05:46:44.440Z,10.81
2023-04-04T05:47:46.001Z,10.78
2023-04-04T05:48:47.622Z,10.81
2023-04-04T05:49:49.194Z,10.79
2023-04-04T05:50:51.117Z,10.80
2023-04-04T05:51:52.732Z,10.80
2023-04-04T05:52:55.708Z,10.79
2023-04-04T05:53:57.612Z,10.82
2023-04-04T05:54:59.135Z,10.85
2023-04-04T05:56:02.567Z,10.88
2023-04-04T05:57:04.304Z,10.93
2023-04-04T05:58:06.230Z,10.93
2023-04-04T05:59:08.171Z,10.95
2023-04-04T06:00:10.417Z,10.99
2023-04-04T06:01:12.560Z,11.02
2023-04-04T06:02:14.089Z,11.06
2023-04-04T06:03:16.824Z,11.11
2023-04-04T06:04:19.504Z,11.13
2023-04-04T06:05:21.127Z,11.17
2023-04-04T06:06:23.546Z,11.24
2023-04-04T06:07:25.262Z,11.28
2023-04-04T06:08:27.080Z,11.25
2023-04-04T06:09:28.593Z,11.20
2023-04-04T06:10:30.174Z,11.13
2023-04-04T06:11:32.233Z,11.14
2023-04-04T06:12:33.766Z,11.07
2023-04-04T06:13:35.433Z,11.08
2023-04-04T06:14:37.110Z,11.11
2023-04-04T06:15:38.690Z,11.09
2023-04-04T06:16:40.522Z,11.12
2023-04-04T06:17:42.169Z,11.14
2023-04-04T06:18:43.900Z,11.14
2023-04-04T06:19:45.595Z,11.19
2023-04-04T06:20:47.092Z,11.23
2023-04-04T06:21:48.625Z,11.26
2023-04-04T06:22:50.209Z,11.27
2023-04-04T06:23:51.722Z,11.25
2023-04-04T06:24:53.285Z,11.24
2023-04-04T06:25:54.963Z,11.29
2023-04-04T06:26:56.667Z,11.35
2023-04-04T06:27:59.454Z,11.43
2023-04-04T06:30:03.447Z,11.72
2023-04-04T06:31:08.802Z,11.84
2023-04-04T06:32:11.243Z,11.94
2023-04-04T06:33:12.891Z,12.04
2023-04-04T06:34:14.838Z,12.14
2023-04-04T06:35:19.534Z,12.23
2023-04-04T06:36:21.917Z,12.29
2023-04-04T06:37:23.471Z,12.33
2023-04-04T06:38:25.057Z,12.38
2023-04-04T06:39:27.218Z,12.37
2023-04-04T06:40:28.840Z,12.44
2023-04-04T06:41:30.437Z,12.35
2023-04-04T06:42:32.353Z,12.30
2023-04-04T06:43:34.082Z,12.34
2023-04-04T06:44:35.845Z,12.50
2023-04-04T06:45:37.741Z,12.59
2023-04-04T06:46:40.324Z,12.64
2023-04-04T06:47:41.958Z,12.65
2023-04-04T06:48:43.600Z,12.51
2023-04-04T06:49:45.278Z,12.38
2023-04-04T06:50:47.369Z,12.11
2023-04-04T06:51:50.799Z,11.98
2023-04-04T06:52:52.770Z,11.96
2023-04-04T06:53:58.550Z,12.06
2023-04-04T06:55:00.152Z,12.06
2023-04-04T06:56:01.713Z,11.72
2023-04-04T06:57:03.452Z,11.57
2023-04-04T06:58:04.994Z,11.60
2023-04-04T06:59:06.600Z,11.75
2023-04-04T07:00:09.509Z,11.71
2023-04-04T07:01:11.857Z,11.55
2023-04-04T07:02:13.512Z,11.40
2023-04-04T07:03:15.140Z,11.61
2023-04-04T07:04:20.204Z,11.90
2023-04-04T07:05:21.740Z,12.07
2023-04-04T07:06:25.878Z,12.19
2023-04-04T07:07:27.667Z,12.28
2023-04-04T07:08:35.971Z,12.36
2023-04-04T07:09:38.413Z,12.42
2023-04-04T07:10:41.231Z,12.47
2023-04-04T07:11:43.071Z,12.41
2023-04-04T07:12:44.606Z,12.31
2023-04-04T07:13:46.118Z,12.32
2023-04-04T07:14:47.744Z,12.33
2023-04-04T07:15:50.076Z,12.39
2023-04-04T07:16:52.590Z,12.46
2023-04-04T07:17:54.918Z,12.45
2023-04-04T07:18:56.639Z,12.35
2023-04-04T07:19:58.138Z,12.35
2023-04-04T07:20:59.669Z,12.29
2023-04-04T07:22:01.329Z,12.17
2023-04-04T07:23:02.874Z,12.12
2023-04-04T07:24:04.558Z,12.34
2023-04-04T07:25:07.127Z,12.59
2023-04-04T07:26:08.702Z,12.57
2023-04-04T07:27:11.270Z,12.54
2023-04-04T07:28:13.660Z,12.74
2023-04-04T07:29:15.382Z,12.76
2023-04-04T07:30:17.214Z,12.90
2023-04-04T07:31:18.871Z,13.10
2023-04-04T07:32:21.202Z,13.43
2023-04-04T07:33:23.613Z,13.67
2023-04-04T07:34:26.620Z,13.77
2023-04-04T07:35:28.584Z,13.83
2023-04-04T07:36:30.181Z,13.76
2023-04-04T07:37:31.776Z,13.52
2023-04-04T07:38:33.303Z,13.18
2023-04-04T07:39:34.871Z,13.11
2023-04-04T07:40:36.701Z,13.05
2023-04-04T07:41:38.535Z,12.82
2023-04-04T07:42:45.545Z,12.90
2023-04-04T07:43:47.350Z,13.00
2023-04-04T07:44:52.452Z,13.11
2023-04-04T07:45:57.033Z,13.15
2023-04-04T07:47:08.710Z,13.36
2023-04-04T07:48:11.303Z,13.62
2023-04-04T07:49:13.012Z,13.76
2023-04-04T07:50:15.673Z,13.82
2023-04-04T07:51:17.423Z,13.87
2023-04-04T07:52:18.943Z,13.89
2023-04-04T07:53:20.493Z,13.86
2023-04-04T07:54:24.056Z,13.89
2023-04-04T07:55:26.049Z,13.82
2023-04-04T07:56:27.661Z,13.75
2023-04-04T07:57:29.511Z,13.55
2023-04-04T07:58:31.102Z,13.50
2023-04-04T07:59:33.063Z,13.55
2023-04-04T08:00:34.668Z,13.58
2023-04-04T08:01:37.143Z,13.60
2023-04-04T08:02:39.198Z,13.69
2023-04-04T08:03:41.356Z,13.80
2023-04-04T08:04:43.185Z,13.95
2023-04-04T08:05:44.808Z,13.98
2023-04-04T08:06:46.585Z,13.97
2023-04-04T08:07:48.154Z,13.89
2023-04-04T08:08:50.765Z,13.85
2023-04-04T08:09:52.350Z,13.88
2023-04-04T08:10:53.838Z,13.91
2023-04-04T08:11:55.522Z,13.93
2023-04-04T08:12:57.046Z,13.90
2023-04-04T08:13:58.604Z,13.90
2023-04-04T08:15:00.320Z,13.83
2023-04-04T08:16:01.963Z,13.81
2023-04-04T08:17:03.522Z,13.79
2023-04-04T08:18:05.428Z,13.74
2023-04-04T08:19:08.437Z,13.70
2023-04-04T08:20:10.601Z,13.62
2023-04-04T08:21:12.189Z,13.61
2023-04-04T08:22:13.766Z,13.63
2023-04-04T08:23:15.778Z,13.68
2023-04-04T08:24:17.318Z,13.70
2023-04-04T08:25:18.868Z,13.67
2023-04-04T08:26:20.539Z,13.59
2023-04-04T08:27:22.267Z,13.48
2023-04-04T08:28:23.864Z,13.40
2023-04-04T08:29:26.769Z,13.42
2023-04-04T08:30:28.405Z,13.42
2023-04-04T08:31:30.787Z,13.43
2023-04-04T08:32:32.436Z,13.43
2023-04-04T08:33:46.717Z,13.40
2023-04-04T08:34:49.854Z,13.37
2023-04-04T08:35:51.530Z,13.41
2023-04-04T08:36:53.763Z,13.42
2023-04-04T08:37:55.649Z,13.56
2023-04-04T08:38:57.190Z,13.68
2023-04-04T08:39:59.248Z,13.83
2023-04-04T08:41:00.893Z,13.94
2023-04-04T08:42:07.562Z,14.01
2023-04-04T08:43:11.040Z,14.04
2023-04-04T08:44:21.067Z,14.12
2023-04-04T08:45:24.659Z,14.19
2023-04-04T08:46:27.973Z,14.30
2023-04-04T08:47:32.005Z,14.32
2023-04-04T08:48:35.317Z,14.31
2023-04-04T08:49:43.236Z,14.33
2023-04-04T08:50:45.012Z,14.37
2023-04-04T08:51:49.166Z,14.39
2023-04-04T08:52:51.136Z,14.35
2023-04-04T08:53:54.350Z,14.21
2023-04-04T08:54:57.811Z,14.04
2023-04-04T08:56:00.350Z,13.93
2023-04-04T08:57:02.502Z,13.92
2023-04-04T08:58:04.910Z,13.87
2023-04-04T08:59:06.627Z,13.86
2023-04-04T09:00:08.999Z,13.87
2023-04-04T09:01:11.269Z,13.91
2023-04-04T09:02:24.348Z,13.92
2023-04-04T09:03:33.062Z,13.83
2023-04-04T09:04:35.563Z,13.79
2023-04-04T09:05:37.459Z,13.63
2023-04-04T09:06:40.220Z,13.64
2023-04-04T09:07:42.704Z,13.53
2023-04-04T09:08:46.021Z,13.59
2023-04-04T09:09:49.398Z,13.69
2023-04-04T09:10:52.655Z,13.68
2023-04-04T09:11:54.834Z,13.70
2023-04-04T09:13:05.176Z,13.82
2023-04-04T09:14:14.388Z,13.94
2023-04-04T09:15:16.090Z,13.97
2023-04-04T09:16:17.929Z,13.98
2023-04-04T09:17:19.541Z,13.92
2023-04-04T09:18:21.225Z,13.77
2023-04-04T09:19:25.694Z,13.68
2023-04-04T09:20:38.061Z,13.61
2023-04-04T09:21:39.830Z,13.51
2023-04-04T09:22:45.243Z,13.53
2023-04-04T09:23:46.864Z,13.55
2023-04-04T09:24:50.630Z,13.50
2023-04-04T09:26:58.410Z,13.39
2023-04-04T09:28:02.887Z,13.41
2023-04-04T09:29:08.332Z,13.41
2023-04-04T09:30:10.243Z,13.42
2023-04-04T09:31:12.361Z,13.49
2023-04-04T09:32:16.268Z,13.37
2023-04-04T09:33:20.092Z,13.26
2023-04-04T09:34:21.718Z,13.13
2023-04-04T09:35:23.381Z,12.89
2023-04-04T09:36:27.104Z,12.70
2023-04-04T09:37:29.091Z,12.55
2023-04-04T09:38:31.606Z,12.32
2023-04-04T09:39:34.174Z,12.21
2023-04-04T09:40:36.865Z,12.18
2023-04-04T09:41:39.648Z,12.10
2023-04-04T09:42:42.241Z,12.03
2023-04-04T09:43:46.948Z,12.07
2023-04-04T09:44:48.648Z,11.99
2023-04-04T09:45:51.721Z,11.83
2023-04-04T09:46:53.627Z,11.76
2023-04-04T09:47:56.462Z,11.74
2023-04-04T09:49:00.528Z,11.69
2023-04-04T09:50:03.941Z,11.62
2023-04-04T09:51:12.591Z,11.61
2023-04-04T09:52:21.206Z,11.63
2023-04-04T09:53:22.874Z,11.69
2023-04-04T09:54:29.743Z,11.74
2023-04-04T09:55:37.783Z,11.84
2023-04-04T09:56:39.506Z,11.83
2023-04-04T09:57:41.807Z,11.86
2023-04-04T09:59:00.688Z,11.79
2023-04-04T10:00:09.793Z,11.76
2023-04-04T10:01:12.646Z,11.78
2023-04-04T10:02:14.297Z,11.77
2023-04-04T10:03:16.621Z,11.70
2023-04-04T10:04:18.868Z,11.55
2023-04-04T10:05:20.856Z,11.47
2023-04-04T10:06:23.334Z,11.47
2023-04-04T10:07:27.017Z,11.42
2023-04-04T10:08:29.880Z,11.39
2023-04-04T10:09:31.452Z,11.39
2023-04-04T10:10:34.372Z,11.34
2023-04-04T10:11:36.246Z,11.33
2023-04-04T10:12:38.621Z,11.28
2023-04-04T10:13:41.916Z,11.23
2023-04-04T10:14:43.812Z,11.20
2023-04-04T10:15:48.323Z,11.16
2023-04-04T10:16:57.031Z,11.17
2023-04-04T10:17:59.876Z,11.20
2023-04-04T10:19:02.852Z,11.11
2023-04-04T10:20:09.397Z,11.04
2023-04-04T10:22:17.078Z,10.97
2023-04-04T10:23:19.627Z,10.96
2023-04-04T10:24:21.739Z,10.91
2023-04-04T10:25:23.634Z,10.86
2023-04-04T10:26:26.627Z,10.93
2023-04-04T10:27:28.404Z,10.97
2023-04-04T10:28:30.090Z,10.99
2023-04-04T10:29:32.456Z,11.01
2023-04-04T10:30:49.843Z,10.98
2023-04-04T10:32:02.551Z,10.92
2023-04-04T10:33:08.872Z,10.78
2023-04-04T10:34:17.714Z,10.73
2023-04-04T10:35:22.709Z,10.75
2023-04-04T10:36:30.066Z,10.73
2023-04-04T10:37:38.111Z,10.80
2023-04-04T10:38:45.264Z,10.79
2023-04-04T10:39:53.760Z,10.76
2023-04-04T10:41:01.273Z,10.67
2023-04-04T10:42:05.656Z,10.66
2023-04-04T10:43:07.763Z,10.62
2023-04-04T10:44:20.998Z,10.55
2023-04-04T10:45:22.881Z,10.64
2023-04-04T10:46:30.927Z,10.71
2023-04-04T10:47:34.113Z,10.73
2023-04-04T10:48:36.604Z,10.69
2023-04-04T10:49:39.335Z,10.62
2023-04-04T10:50:41.908Z,10.62
2023-04-04T10:51:54.968Z,10.65
2023-04-04T10:53:01.181Z,10.56
2023-04-04T10:54:04.037Z,10.50
2023-04-04T10:55:08.356Z,10.46
2023-04-04T10:56:11.281Z,10.37
2023-04-04T10:57:14.251Z,10.37
2023-04-04T10:58:16.178Z,10.35
2023-04-04T10:59:18.235Z,10.27
2023-04-04T11:00:23.275Z,10.34
2023-04-04T11:01:54.783Z,10.36
2023-04-04T11:03:01.117Z,10.28
2023-04-04T11:04:33.315Z,10.21
2023-04-04T11:05:47.117Z,10.18
2023-04-04T11:07:10.236Z,10.11
2023-04-04T11:08:14.314Z,10.08
2023-04-04T11:09:54.686Z,10.08
2023-04-04T11:10:57.604Z,10.07
2023-04-04T11:12:09.744Z,10.12
2023-04-04T11:13:18.442Z,10.14
2023-04-04T11:14:29.809Z,10.07
2023-04-04T11:15:57.921Z,10.02
2023-04-04T11:17:00.526Z,9.95
2023-04-04T11:18:17.324Z,10.00
2023-04-04T11:19:23.295Z,10.00
2023-04-04T11:20:30.173Z,9.97
2023-04-04T11:21:32.639Z,10.01
2023-04-04T11:22:36.625Z,10.08
2023-04-04T11:24:03.079Z,10.12
2023-04-04T11:25:33.578Z,10.24
2023-04-04T11:26:36.572Z,10.38
2023-04-04T11:27:38.182Z,10.46
2023-04-04T11:28:42.442Z,10.47
2023-04-04T11:29:50.696Z,10.58
2023-04-04T11:31:20.443Z,10.60
2023-04-04T11:32:59.908Z,10.59
2023-04-04T11:34:08.070Z,10.56
2023-04-04T11:35:10.381Z,10.50
2023-04-04T11:36:50.756Z,10.45
2023-04-04T11:37:54.938Z,10.36
2023-04-04T11:38:58.251Z,10.31
2023-04-04T11:40:12.168Z,10.34
2023-04-04T11:41:14.791Z,10.26
2023-04-04T11:42:16.644Z,10.25
2023-04-04T11:43:20.390Z,10.12
2023-04-04T11:44:25.514Z,10.04
2023-04-04T11:45:27.342Z,9.95
2023-04-04T11:46:29.726Z,9.92
2023-04-04T11:47:31.944Z,9.96
2023-04-04T11:48:33.593Z,10.01
2023-04-04T11:49:37.125Z,10.05
2023-04-04T11:50:40.315Z,10.04
2023-04-04T11:51:42.315Z,9.96
2023-04-04T11:52:43.933Z,9.93
2023-04-04T11:53:48.093Z,9.94
2023-04-04T11:54:50.266Z,9.92
2023-04-04T11:55:53.398Z,9.92
2023-04-04T11:56:55.053Z,9.95
2023-04-04T11:57:59.641Z,10.05
2023-04-04T12:00:09.038Z,10.04
2023-04-04T12:01:10.585Z,10.07
2023-04-04T12:02:14.077Z,10.13
2023-04-04T12:03:18.577Z,10.18
2023-04-04T12:04:21.812Z,10.12
2023-04-04T12:05:24.357Z,10.10
2023-04-04T12:06:27.283Z,10.08
2023-04-04T12:07:29.737Z,10.07
2023-04-04T12:08:31.862Z,10.06
2023-04-04T12:09:34.520Z,10.05
2023-04-04T12:10:37.545Z,10.06
2023-04-04T12:11:39.767Z,10.13
2023-04-04T12:12:42.267Z,10.16
2023-04-04T12:13:46.823Z,10.11
2023-04-04T12:14:49.105Z,10.09
2023-04-04T12:15:50.735Z,9.97
2023-04-04T12:16:54.610Z,9.88
2023-04-04T12:17:56.353Z,9.85
2023-04-04T12:19:02.068Z,9.77
2023-04-04T12:20:04.994Z,9.79
2023-04-04T12:21:07.378Z,9.78
2023-04-04T12:22:08.980Z,9.80
2023-04-04T12:23:10.565Z,9.87
2023-04-04T12:24:13.154Z,9.89
2023-04-04T12:25:15.246Z,9.85
2023-04-04T12:26:17.750Z,9.77
2023-04-04T12:27:19.664Z,9.67
2023-04-04T12:28:21.906Z,9.57
2023-04-04T12:29:25.708Z,9.51
2023-04-04T12:30:27.606Z,9.47
2023-04-04T12:31:29.947Z,9.51
2023-04-04T12:32:32.101Z,9.56
2023-04-04T12:33:34.440Z,9.58
2023-04-04T12:34:45.625Z,9.50
2023-04-04T12:35:53.681Z,9.51
2023-04-04T12:36:59.295Z,9.57
2023-04-04T12:38:07.629Z,9.64
2023-04-04T12:39:12.138Z,9.71
2023-04-04T12:40:15.405Z,9.67
2023-04-04T12:41:17.617Z,9.66
2023-04-04T12:42:24.029Z,9.74
2023-04-04T12:43:33.809Z,9.73
2023-04-04T12:44:37.578Z,9.63
2023-04-04T12:45:40.458Z,9.57
2023-04-04T12:46:42.726Z,9.48
2023-04-04T12:48:09.330Z,9.44
2023-04-04T12:49:11.824Z,9.43
2023-04-04T12:50:22.184Z,9.42
2023-04-04T12:51:32.817Z,9.34
2023-04-04T12:52:39.870Z,9.25
2023-04-04T12:53:54.001Z,9.20
2023-04-04T12:55:08.150Z,9.20
2023-04-04T12:56:10.655Z,9.25
2023-04-04T12:57:18.230Z,9.17
2023-04-04T12:58:22.517Z,9.15
2023-04-04T12:59:28.973Z,9.16
2023-04-04T13:00:30.804Z,9.17
2023-04-04T13:01:33.236Z,9.15
2023-04-04T13:02:36.851Z,9.18
2023-04-04T13:03:39.105Z,9.21
2023-04-04T13:04:41.026Z,9.17
2023-04-04T13:05:47.336Z,9.19
2023-04-04T13:06:48.993Z,9.18
2023-04-04T13:07:50.618Z,9.16
2023-04-04T13:08:53.450Z,9.20
2023-04-04T13:09:59.718Z,9.15
2023-04-04T13:11:03.830Z,9.13
2023-04-04T13:12:08.595Z,9.12
2023-04-04T13:13:10.165Z,9.10
2023-04-04T13:14:13.328Z,9.07
2023-04-04T13:15:16.689Z,9.06
2023-04-04T13:16:33.157Z,8.95
2023-04-04T13:17:44.116Z,8.98
2023-04-04T13:18:48.289Z,8.97
2023-04-04T13:19:50.598Z,8.93
2023-04-04T13:20:53.840Z,8.82
2023-04-04T13:21:55.583Z,8.75
2023-04-04T13:22:58.673Z,8.62
2023-04-04T13:24:02.271Z,8.63
2023-04-04T13:25:08.274Z,8.63
2023-04-04T13:26:10.822Z,8.59
2023-04-04T13:27:12.429Z,8.62
2023-04-04T13:28:14.423Z,8.64
2023-04-04T13:29:16.059Z,8.67
2023-04-04T13:30:17.626Z,8.67
2023-04-04T13:31:19.384Z,8.65
2023-04-04T13:32:21.043Z,8.59
2023-04-04T13:33:22.772Z,8.48
2023-04-04T13:34:24.446Z,8.42
2023-04-04T13:35:27.233Z,8.42
2023-04-04T13:36:28.782Z,8.32
2023-04-04T13:37:30.327Z,8.34
2023-04-04T13:38:32.079Z,8.42
2023-04-04T13:39:33.751Z,8.48
2023-04-04T13:40:35.335Z,8.52
2023-04-04T13:41:36.901Z,8.50
2023-04-04T13:42:38.467Z,8.47
2023-04-04T13:43:40.037Z,8.46
2023-04-04T13:44:41.550Z,8.40
2023-04-04T13:45:43.740Z,8.31
2023-04-04T13:46:45.506Z,8.28
2023-04-04T13:47:47.161Z,8.31
2023-04-04T13:48:48.741Z,8.41
2023-04-04T13:49:50.434Z,8.35
2023-04-04T13:50:53.291Z,8.31
2023-04-04T13:51:54.910Z,8.25
2023-04-04T13:52:56.738Z,8.28
2023-04-04T13:53:58.346Z,8.21